Dades de l'estació automàtica Barcelona - Zona Universitària
Resum diari
21:30 TU| Temperatura mitjana | 17.1 °C | |
|---|---|---|
| Temperatura màxima | 23.3 °C | 9:41 TU |
| Temperatura mínima | 13.7 °C | 21:59 TU |
| Humitat relativa mitjana | 87% | |
| Precipitació acumulada | 1.5 mm | |
| Ratxa màxima del vent (10 m) | 22.0 km/h - 299º | 20:18 TU |
| Pressió atmosfèrica mitjana | 1012.6 hPa | |
| Irradiació solar global | 11.3 MJ/m2 | |
El tram horari està expressat en Temps Universal (TU). Cal sumar una hora en horari d'hivern i dues en horari d'estiu per passar a l'hora oficial.
Barcelona - Zona Universitària
| Municipi | Barcelona |
|---|---|
| Comarca | Barcelonès |
| Altitud | 82 m |
| Data alta | 17.04.2008 |
| Estat actual | Operativa |
| Període TU |
TM °C |
TX °C |
TN °C |
HRM % |
PPT mm |
VVM (10 m) km/h |
DVM (10 m) graus |
VVX (10 m) km/h |
PM hPa |
RS W/m2 |
|---|---|---|---|---|---|---|---|---|---|---|
| 00:00 - 00:30 | 15.6 | 15.6 | 15.6 | 100 | 0.0 | 0.4 | 324 | 4.7 | 1014.4 | 0 |
| 00:30 - 01:00 | 15.6 | 15.6 | 15.5 | 100 | 0.0 | 0.4 | 357 | 4.3 | 1014.1 | 0 |
| 01:00 - 01:30 | 15.6 | 15.6 | 15.5 | 100 | 0.0 | 1.4 | 299 | 5.0 | 1014.0 | 0 |
| 01:30 - 02:00 | 15.5 | 15.6 | 15.4 | 100 | 0.0 | 0.7 | 279 | 4.0 | 1013.8 | 0 |
| 02:00 - 02:30 | 15.6 | 15.7 | 15.5 | 100 | 0.0 | 1.1 | 281 | 4.0 | 1013.6 | 0 |
| 02:30 - 03:00 | 15.5 | 15.6 | 15.5 | 100 | 0.0 | 1.8 | 273 | 3.6 | 1013.7 | 0 |
| 03:00 - 03:30 | 15.5 | 15.7 | 15.4 | 100 | 0.0 | 2.2 | 141 | 5.8 | 1013.7 | 0 |
| 03:30 - 04:00 | 15.7 | 15.8 | 15.6 | 100 | 0.0 | 1.4 | 246 | 3.6 | 1013.5 | 0 |
| 04:00 - 04:30 | 15.5 | 15.6 | 15.5 | 100 | 0.0 | 1.4 | 277 | 7.6 | 1013.4 | 0 |
| 04:30 - 05:00 | 15.5 | 15.5 | 15.5 | 100 | 0.0 | 4.0 | 290 | 8.6 | 1013.3 | 2 |
| 05:00 - 05:30 | 15.5 | 15.7 | 15.4 | 100 | 0.0 | 1.8 | 279 | 6.1 | 1013.4 | 19 |
| 05:30 - 06:00 | 15.9 | 16.2 | 15.7 | 100 | 0.0 | 0.4 | 211 | 2.5 | 1013.3 | 53 |
| 06:00 - 06:30 | 16.8 | 17.9 | 16.2 | 96 | 0.0 | 0.4 | 299 | 2.5 | 1013.3 | 160 |
| 06:30 - 07:00 | 18.3 | 18.7 | 18.0 | 79 | 0.0 | 2.2 | 248 | 7.2 | 1013.1 | 260 |
| 07:00 - 07:30 | 18.7 | 19.2 | 18.0 | 75 | 0.0 | 4.3 | 276 | 10.1 | 1013.1 | 370 |
| 07:30 - 08:00 | 19.7 | 20.2 | 19.4 | 69 | 0.0 | 2.9 | 273 | 8.3 | 1012.9 | 467 |
| 08:00 - 08:30 | 19.8 | 20.1 | 19.5 | 68 | 0.0 | 5.0 | 243 | 11.9 | 1012.7 | 350 |
| 08:30 - 09:00 | 19.8 | 20.4 | 19.4 | 67 | 0.0 | 4.3 | 239 | 10.1 | 1012.7 | 375 |
| 09:00 - 09:30 | 21.1 | 22.1 | 20.6 | 60 | 0.0 | 3.6 | 260 | 10.8 | 1012.4 | 625 |
| 09:30 - 10:00 | 22.1 | 23.3 | 20.7 | 58 | 0.0 | 5.8 | 223 | 17.3 | 1012.5 | 658 |
| 10:00 - 10:30 | 19.5 | 20.6 | 19.2 | 71 | 0.0 | 10.8 | 194 | 20.5 | 1012.7 | 278 |
| 10:30 - 11:00 | 19.2 | 19.6 | 18.7 | 72 | 0.0 | 7.9 | 218 | 15.1 | 1012.5 | 180 |
| 11:00 - 11:30 | 17.9 | 18.7 | 17.4 | 92 | 0.4 | 10.1 | 180 | 18.7 | 1012.4 | 228 |
| 11:30 - 12:00 | 18.0 | 18.3 | 17.7 | 93 | 0.0 | 9.7 | 190 | 19.8 | 1012.5 | 284 |
| 12:00 - 12:30 | 18.5 | 18.9 | 18.1 | 74 | 0.0 | 9.7 | 197 | 18.7 | 1012.3 | 327 |
| 12:30 - 13:00 | 17.8 | 18.3 | 17.6 | 80 | 0.1 | 9.4 | 215 | 18.7 | 1012.1 | 255 |
| 13:00 - 13:30 | 18.4 | 18.6 | 18.2 | 80 | 0.0 | 9.0 | 233 | 19.4 | 1012.2 | 281 |
| 13:30 - 14:00 | 17.8 | 18.3 | 17.6 | 79 | 0.1 | 5.8 | 217 | 15.5 | 1012.2 | 141 |
| 14:00 - 14:30 | 17.0 | 17.6 | 16.8 | 83 | 0.2 | 5.0 | 223 | 9.4 | 1012.0 | 85 |
| 14:30 - 15:00 | 17.2 | 17.4 | 16.9 | 87 | 0.1 | 5.8 | 225 | 13.0 | 1011.8 | 90 |
| 15:00 - 15:30 | 16.9 | 17.1 | 16.8 | 81 | 0.2 | 4.0 | 228 | 10.1 | 1011.6 | 89 |
| 15:30 - 16:00 | 16.8 | 17.1 | 16.5 | 84 | 0.2 | 4.0 | 214 | 8.6 | 1011.5 | 82 |
| 16:00 - 16:30 | 16.8 | 17.2 | 16.4 | 91 | 0.2 | 1.8 | 141 | 6.8 | 1011.5 | 187 |
| 16:30 - 17:00 | 17.2 | 17.3 | 17.1 | 89 | 0.0 | 1.4 | 123 | 4.7 | 1011.1 | 136 |
| 17:00 - 17:30 | 17.3 | 17.5 | 17.2 | 88 | 0.0 | 1.8 | 210 | 6.1 | 1011.0 | 198 |
| 17:30 - 18:00 | 17.1 | 17.4 | 16.7 | 90 | 0.0 | 3.2 | 216 | 7.6 | 1011.0 | 73 |
| 18:00 - 18:30 | 16.5 | 16.7 | 16.3 | 93 | 0.0 | 4.3 | 221 | 13.0 | 1011.2 | 18 |
| 18:30 - 19:00 | 16.0 | 16.3 | 15.8 | 98 | 0.0 | 4.7 | 247 | 13.0 | 1011.5 | 3 |
| 19:00 - 19:30 | 15.9 | 16.0 | 15.8 | 97 | 0.0 | 4.7 | 247 | 11.9 | 1011.8 | 0 |
| 19:30 - 20:00 | 16.1 | 16.3 | 15.9 | 98 | 0.0 | 5.8 | 266 | 11.2 | 1012.3 | 0 |
| 20:00 - 20:30 | 15.8 | 16.3 | 15.3 | 84 | 0.0 | 9.7 | 308 | 22.0 | 1012.4 | 0 |
| 20:30 - 21:00 | 15.6 | 15.8 | 15.5 | 75 | 0.0 | 8.3 | 313 | 20.2 | 1012.3 | 0 |
| 21:00 - 21:30 | 15.5 | 15.9 | 14.6 | 74 | 0.0 | 4.7 | 305 | 13.7 | 1012.2 | 0 |
| 21:30 - 22:00 | 14.1 | 14.6 | 13.7 | 89 | 0.0 | 5.4 | 265 | 14.4 | 1012.2 | 0 |
| 22:00 - 22:30 | (s/d) | (s/d) | (s/d) | (s/d) | (s/d) | (s/d) | (s/d) | (s/d) | (s/d) | (s/d) |
Les dades en taronja només han passat un control de qualitat automàtic. Resta pendent la seva validació definitiva.